sensor_id;sensor_type;location;lat;lon;timestamp;temperature;humidity
6357;DHT22;3211;53.452;-2.264;2023-04-24T00:01:47;8.80;99.90
6357;DHT22;3211;53.452;-2.264;2023-04-24T00:04:29;8.70;99.90
6357;DHT22;3211;53.452;-2.264;2023-04-24T00:07:12;8.50;99.90
6357;DHT22;3211;53.452;-2.264;2023-04-24T00:09:54;8.40;99.90
6357;DHT22;3211;53.452;-2.264;2023-04-24T00:12:38;8.50;99.90
6357;DHT22;3211;53.452;-2.264;2023-04-24T00:15:20;8.50;99.90
6357;DHT22;3211;53.452;-2.264;2023-04-24T00:18:02;8.40;99.90
6357;DHT22;3211;53.452;-2.264;2023-04-24T00:20:44;8.40;99.90
6357;DHT22;3211;53.452;-2.264;2023-04-24T00:23:27;8.30;99.90
6357;DHT22;3211;53.452;-2.264;2023-04-24T00:26:12;8.30;99.90
6357;DHT22;3211;53.452;-2.264;2023-04-24T00:28:55;8.30;99.90
6357;DHT22;3211;53.452;-2.264;2023-04-24T00:31:37;8.30;99.90
6357;DHT22;3211;53.452;-2.264;2023-04-24T00:34:19;8.30;99.90
6357;DHT22;3211;53.452;-2.264;2023-04-24T00:37:01;8.40;99.90
6357;DHT22;3211;53.452;-2.264;2023-04-24T00:39:43;8.20;99.90
6357;DHT22;3211;53.452;-2.264;2023-04-24T00:42:25;8.30;99.90
6357;DHT22;3211;53.452;-2.264;2023-04-24T00:45:10;8.20;99.90
6357;DHT22;3211;53.452;-2.264;2023-04-24T00:47:53;8.10;99.90
6357;DHT22;3211;53.452;-2.264;2023-04-24T00:50:36;8.10;99.90
6357;DHT22;3211;53.452;-2.264;2023-04-24T00:53:18;8.10;99.90
6357;DHT22;3211;53.452;-2.264;2023-04-24T00:56:00;8.10;99.90
6357;DHT22;3211;53.452;-2.264;2023-04-24T00:58:43;8.00;99.90
6357;DHT22;3211;53.452;-2.264;2023-04-24T01:01:27;8.10;99.90
6357;DHT22;3211;53.452;-2.264;2023-04-24T01:04:09;8.10;99.90
6357;DHT22;3211;53.452;-2.264;2023-04-24T01:06:53;8.00;99.90
6357;DHT22;3211;53.452;-2.264;2023-04-24T01:09:36;8.10;99.90
6357;DHT22;3211;53.452;-2.264;2023-04-24T01:12:37;8.10;99.90
6357;DHT22;3211;53.452;-2.264;2023-04-24T01:15:20;8.10;99.90
6357;DHT22;3211;53.452;-2.264;2023-04-24T01:18:04;8.10;99.90
6357;DHT22;3211;53.452;-2.264;2023-04-24T01:20:46;8.00;99.90
6357;DHT22;3211;53.452;-2.264;2023-04-24T01:23:32;8.10;99.90
6357;DHT22;3211;53.452;-2.264;2023-04-24T01:26:20;8.10;99.90
6357;DHT22;3211;53.452;-2.264;2023-04-24T01:29:03;8.10;99.90
6357;DHT22;3211;53.452;-2.264;2023-04-24T01:31:45;8.10;99.90
6357;DHT22;3211;53.452;-2.264;2023-04-24T01:34:27;8.10;99.90
6357;DHT22;3211;53.452;-2.264;2023-04-24T01:37:09;8.10;99.90
6357;DHT22;3211;53.452;-2.264;2023-04-24T01:39:52;8.10;99.90
6357;DHT22;3211;53.452;-2.264;2023-04-24T01:42:34;8.10;99.90
6357;DHT22;3211;53.452;-2.264;2023-04-24T01:45:17;8.10;99.90
6357;DHT22;3211;53.452;-2.264;2023-04-24T01:47:59;8.10;99.90
6357;DHT22;3211;53.452;-2.264;2023-04-24T01:50:42;8.10;99.90
6357;DHT22;3211;53.452;-2.264;2023-04-24T01:53:23;8.10;99.90
6357;DHT22;3211;53.452;-2.264;2023-04-24T01:56:07;8.10;99.90
6357;DHT22;3211;53.452;-2.264;2023-04-24T01:58:50;8.00;99.90
6357;DHT22;3211;53.452;-2.264;2023-04-24T02:01:34;8.00;99.90
6357;DHT22;3211;53.452;-2.264;2023-04-24T02:04:17;8.00;99.90
6357;DHT22;3211;53.452;-2.264;2023-04-24T02:06:59;8.00;99.90
6357;DHT22;3211;53.452;-2.264;2023-04-24T02:09:41;8.00;99.90
6357;DHT22;3211;53.452;-2.264;2023-04-24T02:12:24;8.00;99.90
6357;DHT22;3211;53.452;-2.264;2023-04-24T02:15:07;7.90;99.90
6357;DHT22;3211;53.452;-2.264;2023-04-24T02:17:49;7.90;99.90
6357;DHT22;3211;53.452;-2.264;2023-04-24T02:20:30;7.90;99.90
6357;DHT22;3211;53.452;-2.264;2023-04-24T02:23:14;7.90;99.90
6357;DHT22;3211;53.452;-2.264;2023-04-24T02:25:56;7.90;99.90
6357;DHT22;3211;53.452;-2.264;2023-04-24T02:28:39;7.90;99.90
6357;DHT22;3211;53.452;-2.264;2023-04-24T02:31:21;7.80;99.90
6357;DHT22;3211;53.452;-2.264;2023-04-24T02:34:03;7.90;99.90
6357;DHT22;3211;53.452;-2.264;2023-04-24T02:36:46;7.80;99.90
6357;DHT22;3211;53.452;-2.264;2023-04-24T02:39:28;7.80;99.90
6357;DHT22;3211;53.452;-2.264;2023-04-24T02:42:10;7.80;99.90
6357;DHT22;3211;53.452;-2.264;2023-04-24T02:44:53;7.80;99.90
6357;DHT22;3211;53.452;-2.264;2023-04-24T02:47:35;7.80;99.90
6357;DHT22;3211;53.452;-2.264;2023-04-24T02:50:17;7.80;99.90
6357;DHT22;3211;53.452;-2.264;2023-04-24T02:53:00;7.70;99.90
6357;DHT22;3211;53.452;-2.264;2023-04-24T02:55:42;7.70;99.90
6357;DHT22;3211;53.452;-2.264;2023-04-24T02:58:24;7.70;99.90
6357;DHT22;3211;53.452;-2.264;2023-04-24T03:01:07;7.70;99.90
6357;DHT22;3211;53.452;-2.264;2023-04-24T03:03:50;7.60;99.90
6357;DHT22;3211;53.452;-2.264;2023-04-24T03:06:32;7.70;99.90
6357;DHT22;3211;53.452;-2.264;2023-04-24T03:09:16;7.60;99.90
6357;DHT22;3211;53.452;-2.264;2023-04-24T03:11:58;7.70;99.90
6357;DHT22;3211;53.452;-2.264;2023-04-24T03:14:40;7.70;99.90
6357;DHT22;3211;53.452;-2.264;2023-04-24T03:17:24;7.60;99.90
6357;DHT22;3211;53.452;-2.264;2023-04-24T03:20:07;7.70;99.90
6357;DHT22;3211;53.452;-2.264;2023-04-24T03:22:49;7.60;99.90
6357;DHT22;3211;53.452;-2.264;2023-04-24T03:25:32;7.50;99.90
6357;DHT22;3211;53.452;-2.264;2023-04-24T03:28:14;7.60;99.90
6357;DHT22;3211;53.452;-2.264;2023-04-24T03:30:57;7.50;99.90
6357;DHT22;3211;53.452;-2.264;2023-04-24T03:33:44;7.50;99.90
6357;DHT22;3211;53.452;-2.264;2023-04-24T03:36:31;7.50;99.90
6357;DHT22;3211;53.452;-2.264;2023-04-24T03:39:17;7.50;99.90
6357;DHT22;3211;53.452;-2.264;2023-04-24T03:41:59;7.50;99.90
6357;DHT22;3211;53.452;-2.264;2023-04-24T03:44:42;7.60;99.90
6357;DHT22;3211;53.452;-2.264;2023-04-24T03:47:24;7.50;99.90
6357;DHT22;3211;53.452;-2.264;2023-04-24T03:50:09;7.50;99.90
6357;DHT22;3211;53.452;-2.264;2023-04-24T03:52:51;7.50;99.90
6357;DHT22;3211;53.452;-2.264;2023-04-24T03:55:33;7.40;99.90
6357;DHT22;3211;53.452;-2.264;2023-04-24T03:58:16;7.50;99.90
6357;DHT22;3211;53.452;-2.264;2023-04-24T04:00:58;7.50;99.90
6357;DHT22;3211;53.452;-2.264;2023-04-24T04:03:40;7.40;99.90
6357;DHT22;3211;53.452;-2.264;2023-04-24T04:06:24;7.40;99.90
6357;DHT22;3211;53.452;-2.264;2023-04-24T04:09:07;7.40;99.90
6357;DHT22;3211;53.452;-2.264;2023-04-24T04:11:50;7.50;99.90
6357;DHT22;3211;53.452;-2.264;2023-04-24T04:14:32;7.40;99.90
6357;DHT22;3211;53.452;-2.264;2023-04-24T04:17:15;7.40;99.90
6357;DHT22;3211;53.452;-2.264;2023-04-24T04:20:01;7.40;99.90
6357;DHT22;3211;53.452;-2.264;2023-04-24T04:22:49;7.50;99.90
6357;DHT22;3211;53.452;-2.264;2023-04-24T04:25:31;7.40;99.90
6357;DHT22;3211;53.452;-2.264;2023-04-24T04:28:13;7.40;99.90
6357;DHT22;3211;53.452;-2.264;2023-04-24T04:30:56;7.30;99.90
6357;DHT22;3211;53.452;-2.264;2023-04-24T04:33:38;7.40;99.90
6357;DHT22;3211;53.452;-2.264;2023-04-24T04:36:22;7.40;99.90
6357;DHT22;3211;53.452;-2.264;2023-04-24T04:39:07;7.30;99.90
6357;DHT22;3211;53.452;-2.264;2023-04-24T04:41:49;7.40;99.90
6357;DHT22;3211;53.452;-2.264;2023-04-24T04:44:31;7.40;99.90
6357;DHT22;3211;53.452;-2.264;2023-04-24T04:47:13;7.40;99.90
6357;DHT22;3211;53.452;-2.264;2023-04-24T04:49:56;7.30;99.90
6357;DHT22;3211;53.452;-2.264;2023-04-24T04:52:39;7.40;99.90
6357;DHT22;3211;53.452;-2.264;2023-04-24T04:55:23;7.30;99.90
6357;DHT22;3211;53.452;-2.264;2023-04-24T04:58:06;7.30;99.90
6357;DHT22;3211;53.452;-2.264;2023-04-24T05:00:48;7.30;99.90
6357;DHT22;3211;53.452;-2.264;2023-04-24T05:03:30;7.30;99.90
6357;DHT22;3211;53.452;-2.264;2023-04-24T05:06:12;7.30;99.90
6357;DHT22;3211;53.452;-2.264;2023-04-24T05:08:55;7.30;99.90
6357;DHT22;3211;53.452;-2.264;2023-04-24T05:11:39;7.20;99.90
6357;DHT22;3211;53.452;-2.264;2023-04-24T05:14:21;7.20;99.90
6357;DHT22;3211;53.452;-2.264;2023-04-24T05:17:04;7.30;99.90
6357;DHT22;3211;53.452;-2.264;2023-04-24T05:19:46;7.30;99.90
6357;DHT22;3211;53.452;-2.264;2023-04-24T05:22:28;7.30;99.90
6357;DHT22;3211;53.452;-2.264;2023-04-24T05:25:11;7.30;99.90
6357;DHT22;3211;53.452;-2.264;2023-04-24T05:27:54;7.30;99.90
6357;DHT22;3211;53.452;-2.264;2023-04-24T05:30:37;7.40;99.90
6357;DHT22;3211;53.452;-2.264;2023-04-24T05:33:19;7.30;99.90
6357;DHT22;3211;53.452;-2.264;2023-04-24T05:36:02;7.40;99.90
6357;DHT22;3211;53.452;-2.264;2023-04-24T05:38:44;7.40;99.90
6357;DHT22;3211;53.452;-2.264;2023-04-24T05:41:26;7.40;99.90
6357;DHT22;3211;53.452;-2.264;2023-04-24T05:44:10;7.40;99.90
6357;DHT22;3211;53.452;-2.264;2023-04-24T05:46:52;7.30;99.90
6357;DHT22;3211;53.452;-2.264;2023-04-24T05:49:36;7.40;99.90
6357;DHT22;3211;53.452;-2.264;2023-04-24T05:52:18;7.30;99.90
6357;DHT22;3211;53.452;-2.264;2023-04-24T05:55:00;7.30;99.90
6357;DHT22;3211;53.452;-2.264;2023-04-24T05:57:43;7.30;99.90
6357;DHT22;3211;53.452;-2.264;2023-04-24T06:00:28;7.10;99.90
6357;DHT22;3211;53.452;-2.264;2023-04-24T06:03:10;7.10;99.90
6357;DHT22;3211;53.452;-2.264;2023-04-24T06:05:52;7.10;99.90
6357;DHT22;3211;53.452;-2.264;2023-04-24T06:08:35;7.00;99.90
6357;DHT22;3211;53.452;-2.264;2023-04-24T06:11:18;7.00;99.90
6357;DHT22;3211;53.452;-2.264;2023-04-24T06:14:00;7.00;99.90
6357;DHT22;3211;53.452;-2.264;2023-04-24T06:16:44;7.10;99.90
6357;DHT22;3211;53.452;-2.264;2023-04-24T06:19:26;7.20;99.90
6357;DHT22;3211;53.452;-2.264;2023-04-24T06:22:08;7.20;99.90
6357;DHT22;3211;53.452;-2.264;2023-04-24T06:24:52;7.30;99.90
6357;DHT22;3211;53.452;-2.264;2023-04-24T06:27:34;7.20;99.90
6357;DHT22;3211;53.452;-2.264;2023-04-24T06:30:17;7.20;99.90
6357;DHT22;3211;53.452;-2.264;2023-04-24T06:33:00;7.30;99.90
6357;DHT22;3211;53.452;-2.264;2023-04-24T06:35:43;7.40;99.90
6357;DHT22;3211;53.452;-2.264;2023-04-24T06:38:25;7.30;99.90
6357;DHT22;3211;53.452;-2.264;2023-04-24T06:41:08;7.30;99.90
6357;DHT22;3211;53.452;-2.264;2023-04-24T06:43:50;7.40;99.90
6357;DHT22;3211;53.452;-2.264;2023-04-24T06:46:32;7.40;99.90
6357;DHT22;3211;53.452;-2.264;2023-04-24T06:49:16;7.40;99.90
6357;DHT22;3211;53.452;-2.264;2023-04-24T06:51:59;7.50;99.90
6357;DHT22;3211;53.452;-2.264;2023-04-24T06:54:41;7.60;99.90
6357;DHT22;3211;53.452;-2.264;2023-04-24T06:57:24;7.50;99.90
6357;DHT22;3211;53.452;-2.264;2023-04-24T07:00:07;7.60;99.90
6357;DHT22;3211;53.452;-2.264;2023-04-24T07:02:50;7.70;99.90
6357;DHT22;3211;53.452;-2.264;2023-04-24T07:05:34;7.80;99.90
6357;DHT22;3211;53.452;-2.264;2023-04-24T07:08:18;7.70;99.90
6357;DHT22;3211;53.452;-2.264;2023-04-24T07:11:02;7.70;99.90
6357;DHT22;3211;53.452;-2.264;2023-04-24T07:13:44;7.60;99.90
6357;DHT22;3211;53.452;-2.264;2023-04-24T07:16:27;7.70;99.90
6357;DHT22;3211;53.452;-2.264;2023-04-24T07:19:11;7.80;99.90
6357;DHT22;3211;53.452;-2.264;2023-04-24T07:21:55;7.90;99.90
6357;DHT22;3211;53.452;-2.264;2023-04-24T07:24:38;7.90;99.90
6357;DHT22;3211;53.452;-2.264;2023-04-24T07:27:21;7.80;99.90
6357;DHT22;3211;53.452;-2.264;2023-04-24T07:30:04;7.90;99.90
6357;DHT22;3211;53.452;-2.264;2023-04-24T07:32:47;8.10;99.90
6357;DHT22;3211;53.452;-2.264;2023-04-24T07:35:30;8.10;99.90
6357;DHT22;3211;53.452;-2.264;2023-04-24T07:38:14;8.30;99.90
6357;DHT22;3211;53.452;-2.264;2023-04-24T07:40:56;8.30;99.90
6357;DHT22;3211;53.452;-2.264;2023-04-24T07:43:39;8.20;99.90
6357;DHT22;3211;53.452;-2.264;2023-04-24T07:46:21;8.20;99.90
6357;DHT22;3211;53.452;-2.264;2023-04-24T07:49:04;8.30;99.90
6357;DHT22;3211;53.452;-2.264;2023-04-24T07:51:46;8.20;99.90
6357;DHT22;3211;53.452;-2.264;2023-04-24T07:54:30;8.20;99.90
6357;DHT22;3211;53.452;-2.264;2023-04-24T07:57:12;8.20;99.90
6357;DHT22;3211;53.452;-2.264;2023-04-24T07:59:55;8.10;99.90
6357;DHT22;3211;53.452;-2.264;2023-04-24T08:02:37;8.30;99.90
6357;DHT22;3211;53.452;-2.264;2023-04-24T08:05:20;8.40;99.90
6357;DHT22;3211;53.452;-2.264;2023-04-24T08:08:03;8.50;99.90
6357;DHT22;3211;53.452;-2.264;2023-04-24T08:10:47;8.70;99.90
6357;DHT22;3211;53.452;-2.264;2023-04-24T08:13:29;8.80;99.90
6357;DHT22;3211;53.452;-2.264;2023-04-24T08:16:12;8.70;99.90
6357;DHT22;3211;53.452;-2.264;2023-04-24T08:18:54;8.70;99.90
6357;DHT22;3211;53.452;-2.264;2023-04-24T08:21:37;8.90;99.90
6357;DHT22;3211;53.452;-2.264;2023-04-24T08:24:20;8.80;99.90
6357;DHT22;3211;53.452;-2.264;2023-04-24T08:27:03;9.00;99.90
6357;DHT22;3211;53.452;-2.264;2023-04-24T08:29:45;9.10;99.90
6357;DHT22;3211;53.452;-2.264;2023-04-24T08:32:28;9.20;99.90
6357;DHT22;3211;53.452;-2.264;2023-04-24T08:35:10;9.30;99.90
6357;DHT22;3211;53.452;-2.264;2023-04-24T08:37:53;9.40;99.90
6357;DHT22;3211;53.452;-2.264;2023-04-24T08:40:37;9.50;99.90
6357;DHT22;3211;53.452;-2.264;2023-04-24T08:43:22;9.60;99.90
6357;DHT22;3211;53.452;-2.264;2023-04-24T08:46:04;9.70;99.90
6357;DHT22;3211;53.452;-2.264;2023-04-24T08:48:48;9.80;99.90
6357;DHT22;3211;53.452;-2.264;2023-04-24T08:51:31;9.70;98.90
6357;DHT22;3211;53.452;-2.264;2023-04-24T08:54:13;9.60;91.60
6357;DHT22;3211;53.452;-2.264;2023-04-24T08:56:59;9.60;94.50
6357;DHT22;3211;53.452;-2.264;2023-04-24T08:59:44;9.70;94.40
6357;DHT22;3211;53.452;-2.264;2023-04-24T09:02:26;9.70;92.20
6357;DHT22;3211;53.452;-2.264;2023-04-24T09:05:10;9.50;82.50
6357;DHT22;3211;53.452;-2.264;2023-04-24T09:07:54;9.30;76.10
6357;DHT22;3211;53.452;-2.264;2023-04-24T09:10:37;9.30;70.90
6357;DHT22;3211;53.452;-2.264;2023-04-24T09:13:20;9.30;44.10
6357;DHT22;3211;53.452;-2.264;2023-04-24T09:16:04;9.30;41.30
6357;DHT22;3211;53.452;-2.264;2023-04-24T09:18:47;9.50;30.00
6357;DHT22;3211;53.452;-2.264;2023-04-24T09:21:32;9.90;30.60
6357;DHT22;3211;53.452;-2.264;2023-04-24T09:24:16;10.30;37.00
6357;DHT22;3211;53.452;-2.264;2023-04-24T09:27:04;10.40;11.30
6357;DHT22;3211;53.452;-2.264;2023-04-24T09:29:55;10.40;21.10
6357;DHT22;3211;53.452;-2.264;2023-04-24T09:32:39;10.20;11.00
6357;DHT22;3211;53.452;-2.264;2023-04-24T09:35:22;10.00;12.40
6357;DHT22;3211;53.452;-2.264;2023-04-24T09:38:05;9.80;34.40
6357;DHT22;3211;53.452;-2.264;2023-04-24T09:40:48;9.70;48.30
6357;DHT22;3211;53.452;-2.264;2023-04-24T09:43:30;9.60;63.60
6357;DHT22;3211;53.452;-2.264;2023-04-24T09:46:13;9.70;48.10
6357;DHT22;3211;53.452;-2.264;2023-04-24T09:48:56;10.20;47.70
6357;DHT22;3211;53.452;-2.264;2023-04-24T09:51:39;10.50;28.20
6357;DHT22;3211;53.452;-2.264;2023-04-24T09:54:21;10.70;5.90
6357;DHT22;3211;53.452;-2.264;2023-04-24T09:57:07;10.90;1.00
6357;DHT22;3211;53.452;-2.264;2023-04-24T09:59:53;10.80;1.00
6357;DHT22;3211;53.452;-2.264;2023-04-24T10:02:35;10.90;1.00
6357;DHT22;3211;53.452;-2.264;2023-04-24T10:05:19;11.00;1.00
6357;DHT22;3211;53.452;-2.264;2023-04-24T10:08:06;11.40;1.00
6357;DHT22;3211;53.452;-2.264;2023-04-24T10:10:48;11.70;1.00
6357;DHT22;3211;53.452;-2.264;2023-04-24T10:13:32;11.60;1.00
6357;DHT22;3211;53.452;-2.264;2023-04-24T10:16:15;11.70;1.00
6357;DHT22;3211;53.452;-2.264;2023-04-24T10:18:59;11.60;1.00
6357;DHT22;3211;53.452;-2.264;2023-04-24T10:21:44;11.20;1.00
6357;DHT22;3211;53.452;-2.264;2023-04-24T10:24:28;10.90;1.00
6357;DHT22;3211;53.452;-2.264;2023-04-24T10:27:13;11.00;1.00
6357;DHT22;3211;53.452;-2.264;2023-04-24T10:29:56;10.80;1.00
6357;DHT22;3211;53.452;-2.264;2023-04-24T10:32:39;10.80;1.00
6357;DHT22;3211;53.452;-2.264;2023-04-24T10:35:23;10.80;1.00
6357;DHT22;3211;53.452;-2.264;2023-04-24T10:38:12;11.20;1.00
6357;DHT22;3211;53.452;-2.264;2023-04-24T10:40:57;11.80;1.00
6357;DHT22;3211;53.452;-2.264;2023-04-24T10:43:48;12.40;1.00
6357;DHT22;3211;53.452;-2.264;2023-04-24T10:46:32;12.90;1.00
6357;DHT22;3211;53.452;-2.264;2023-04-24T10:49:15;13.10;1.00
6357;DHT22;3211;53.452;-2.264;2023-04-24T10:52:00;12.90;1.00
6357;DHT22;3211;53.452;-2.264;2023-04-24T10:54:46;12.40;1.00
6357;DHT22;3211;53.452;-2.264;2023-04-24T10:57:30;12.00;1.00
6357;DHT22;3211;53.452;-2.264;2023-04-24T11:00:16;11.90;1.00
6357;DHT22;3211;53.452;-2.264;2023-04-24T11:02:58;11.90;1.00
6357;DHT22;3211;53.452;-2.264;2023-04-24T11:05:51;11.80;1.00
6357;DHT22;3211;53.452;-2.264;2023-04-24T11:08:38;11.60;1.00
6357;DHT22;3211;53.452;-2.264;2023-04-24T11:11:28;11.20;1.00
6357;DHT22;3211;53.452;-2.264;2023-04-24T11:14:14;11.60;1.00
6357;DHT22;3211;53.452;-2.264;2023-04-24T11:16:57;11.70;1.00
6357;DHT22;3211;53.452;-2.264;2023-04-24T11:19:40;11.90;1.00
6357;DHT22;3211;53.452;-2.264;2023-04-24T11:22:23;12.50;1.00
6357;DHT22;3211;53.452;-2.264;2023-04-24T11:25:07;12.70;1.00
6357;DHT22;3211;53.452;-2.264;2023-04-24T11:27:51;12.40;1.00
6357;DHT22;3211;53.452;-2.264;2023-04-24T11:30:44;12.50;1.00
6357;DHT22;3211;53.452;-2.264;2023-04-24T11:33:26;12.60;1.00
6357;DHT22;3211;53.452;-2.264;2023-04-24T11:36:09;12.70;1.00
6357;DHT22;3211;53.452;-2.264;2023-04-24T11:38:51;12.90;1.00
6357;DHT22;3211;53.452;-2.264;2023-04-24T11:41:33;13.00;1.00
6357;DHT22;3211;53.452;-2.264;2023-04-24T11:44:20;13.10;1.00
6357;DHT22;3211;53.452;-2.264;2023-04-24T11:47:04;13.60;1.00
6357;DHT22;3211;53.452;-2.264;2023-04-24T11:49:50;14.30;1.00
6357;DHT22;3211;53.452;-2.264;2023-04-24T11:52:36;14.30;99.90
6357;DHT22;3211;53.452;-2.264;2023-04-24T11:55:26;14.50;1.00
6357;DHT22;3211;53.452;-2.264;2023-04-24T11:58:09;14.80;1.00
6357;DHT22;3211;53.452;-2.264;2023-04-24T12:00:57;15.00;1.00
6357;DHT22;3211;53.452;-2.264;2023-04-24T12:03:40;15.40;99.90
6357;DHT22;3211;53.452;-2.264;2023-04-24T12:06:24;15.00;1.00
6357;DHT22;3211;53.452;-2.264;2023-04-24T12:09:07;14.50;1.00
6357;DHT22;3211;53.452;-2.264;2023-04-24T12:11:53;14.30;1.00
6357;DHT22;3211;53.452;-2.264;2023-04-24T12:14:46;14.20;1.00
6357;DHT22;3211;53.452;-2.264;2023-04-24T12:17:31;13.90;99.90
6357;DHT22;3211;53.452;-2.264;2023-04-24T12:20:14;13.40;99.90
6357;DHT22;3211;53.452;-2.264;2023-04-24T12:22:58;13.30;99.90
6357;DHT22;3211;53.452;-2.264;2023-04-24T12:25:40;13.40;1.00
6357;DHT22;3211;53.452;-2.264;2023-04-24T12:28:23;13.40;1.00
6357;DHT22;3211;53.452;-2.264;2023-04-24T12:31:06;13.30;1.00
6357;DHT22;3211;53.452;-2.264;2023-04-24T13:27:02;12.80;99.90
6357;DHT22;3211;53.452;-2.264;2023-04-24T13:29:44;12.90;1.00
6357;DHT22;3211;53.452;-2.264;2023-04-24T13:32:27;13.00;1.00
6357;DHT22;3211;53.452;-2.264;2023-04-24T13:35:12;12.80;1.00
6357;DHT22;3211;53.452;-2.264;2023-04-24T13:37:54;13.00;1.00
6357;DHT22;3211;53.452;-2.264;2023-04-24T13:40:37;13.00;1.00
6357;DHT22;3211;53.452;-2.264;2023-04-24T13:43:20;13.00;1.00
6357;DHT22;3211;53.452;-2.264;2023-04-24T13:46:02;13.00;1.00
6357;DHT22;3211;53.452;-2.264;2023-04-24T13:48:50;12.80;1.00
6357;DHT22;3211;53.452;-2.264;2023-04-24T13:51:33;12.80;1.00
6357;DHT22;3211;53.452;-2.264;2023-04-24T13:54:15;12.40;1.00
6357;DHT22;3211;53.452;-2.264;2023-04-24T13:56:58;12.20;1.00
6357;DHT22;3211;53.452;-2.264;2023-04-24T13:59:46;12.10;1.00
6357;DHT22;3211;53.452;-2.264;2023-04-24T14:02:28;12.00;1.00
6357;DHT22;3211;53.452;-2.264;2023-04-24T14:05:10;11.90;1.00
6357;DHT22;3211;53.452;-2.264;2023-04-24T14:07:52;11.90;1.00
6357;DHT22;3211;53.452;-2.264;2023-04-24T14:10:34;11.80;1.00
6357;DHT22;3211;53.452;-2.264;2023-04-24T14:13:16;11.70;1.00
6357;DHT22;3211;53.452;-2.264;2023-04-24T14:16:00;11.60;1.00
6357;DHT22;3211;53.452;-2.264;2023-04-24T14:18:42;11.40;1.00
6357;DHT22;3211;53.452;-2.264;2023-04-24T14:21:24;11.30;1.00
6357;DHT22;3211;53.452;-2.264;2023-04-24T14:24:06;11.20;1.00
6357;DHT22;3211;53.452;-2.264;2023-04-24T14:26:52;11.10;1.00
6357;DHT22;3211;53.452;-2.264;2023-04-24T14:29:34;11.00;1.00
6357;DHT22;3211;53.452;-2.264;2023-04-24T14:32:17;10.90;1.00
6357;DHT22;3211;53.452;-2.264;2023-04-24T14:34:59;10.90;1.00
6357;DHT22;3211;53.452;-2.264;2023-04-24T14:37:41;10.90;1.00
6357;DHT22;3211;53.452;-2.264;2023-04-24T14:40:23;11.00;1.00
6357;DHT22;3211;53.452;-2.264;2023-04-24T14:43:05;10.90;1.00
6357;DHT22;3211;53.452;-2.264;2023-04-24T14:45:47;11.00;1.00
6357;DHT22;3211;53.452;-2.264;2023-04-24T14:48:35;10.90;1.00
6357;DHT22;3211;53.452;-2.264;2023-04-24T14:51:17;11.00;1.00
6357;DHT22;3211;53.452;-2.264;2023-04-24T14:53:59;11.00;1.00
6357;DHT22;3211;53.452;-2.264;2023-04-24T14:56:41;11.00;1.00
6357;DHT22;3211;53.452;-2.264;2023-04-24T14:59:24;10.90;1.00
6357;DHT22;3211;53.452;-2.264;2023-04-24T15:02:06;11.00;1.00
6357;DHT22;3211;53.452;-2.264;2023-04-24T15:04:49;10.90;1.00
6357;DHT22;3211;53.452;-2.264;2023-04-24T15:07:31;10.80;1.00
6357;DHT22;3211;53.452;-2.264;2023-04-24T15:10:13;11.00;1.00
6357;DHT22;3211;53.452;-2.264;2023-04-24T15:12:55;11.10;1.00
6357;DHT22;3211;53.452;-2.264;2023-04-24T15:15:37;10.90;1.00
6357;DHT22;3211;53.452;-2.264;2023-04-24T15:18:20;10.90;1.00
6357;DHT22;3211;53.452;-2.264;2023-04-24T15:21:03;11.00;1.00
6357;DHT22;3211;53.452;-2.264;2023-04-24T15:23:46;11.10;1.00
6357;DHT22;3211;53.452;-2.264;2023-04-24T15:26:28;11.20;1.00
6357;DHT22;3211;53.452;-2.264;2023-04-24T15:29:10;11.10;1.00
6357;DHT22;3211;53.452;-2.264;2023-04-24T15:31:52;11.00;1.00
6357;DHT22;3211;53.452;-2.264;2023-04-24T15:34:34;10.80;1.00
6357;DHT22;3211;53.452;-2.264;2023-04-24T15:37:17;10.70;1.00
6357;DHT22;3211;53.452;-2.264;2023-04-24T15:39:59;10.70;9.10
6357;DHT22;3211;53.452;-2.264;2023-04-24T15:42:41;10.60;43.20
6357;DHT22;3211;53.452;-2.264;2023-04-24T15:45:24;10.50;49.40
6357;DHT22;3211;53.452;-2.264;2023-04-24T15:48:06;10.50;50.10
6357;DHT22;3211;53.452;-2.264;2023-04-24T15:50:48;10.60;69.90
6357;DHT22;3211;53.452;-2.264;2023-04-24T15:53:32;10.70;11.00
6357;DHT22;3211;53.452;-2.264;2023-04-24T15:56:14;10.60;1.00
6357;DHT22;3211;53.452;-2.264;2023-04-24T15:58:56;10.50;1.00
6357;DHT22;3211;53.452;-2.264;2023-04-24T16:01:40;10.60;1.00
6357;DHT22;3211;53.452;-2.264;2023-04-24T16:04:22;10.60;1.00
6357;DHT22;3211;53.452;-2.264;2023-04-24T16:07:04;10.60;1.00
6357;DHT22;3211;53.452;-2.264;2023-04-24T16:09:48;10.60;1.00
6357;DHT22;3211;53.452;-2.264;2023-04-24T16:12:30;10.50;1.00
6357;DHT22;3211;53.452;-2.264;2023-04-24T16:15:12;10.50;1.00
6357;DHT22;3211;53.452;-2.264;2023-04-24T16:17:54;10.50;1.00
6357;DHT22;3211;53.452;-2.264;2023-04-24T16:20:36;10.50;1.00
6357;DHT22;3211;53.452;-2.264;2023-04-24T16:23:18;10.40;1.00
6357;DHT22;3211;53.452;-2.264;2023-04-24T16:26:02;10.50;1.00
6357;DHT22;3211;53.452;-2.264;2023-04-24T16:28:44;10.40;1.00
6357;DHT22;3211;53.452;-2.264;2023-04-24T16:31:26;10.30;1.00
6357;DHT22;3211;53.452;-2.264;2023-04-24T16:34:09;10.40;1.00
6357;DHT22;3211;53.452;-2.264;2023-04-24T16:36:51;10.20;1.00
6357;DHT22;3211;53.452;-2.264;2023-04-24T16:39:33;10.40;1.00
6357;DHT22;3211;53.452;-2.264;2023-04-24T16:42:17;10.50;1.00
6357;DHT22;3211;53.452;-2.264;2023-04-24T16:44:59;10.50;1.00
6357;DHT22;3211;53.452;-2.264;2023-04-24T16:47:41;10.60;1.00
6357;DHT22;3211;53.452;-2.264;2023-04-24T16:50:23;10.90;1.00
6357;DHT22;3211;53.452;-2.264;2023-04-24T16:53:05;11.00;1.00
6357;DHT22;3211;53.452;-2.264;2023-04-24T16:55:47;11.10;1.00
6357;DHT22;3211;53.452;-2.264;2023-04-24T16:58:31;11.30;1.00
6357;DHT22;3211;53.452;-2.264;2023-04-24T17:01:12;11.10;1.00
6357;DHT22;3211;53.452;-2.264;2023-04-24T17:03:55;11.10;1.00
6357;DHT22;3211;53.452;-2.264;2023-04-24T17:06:37;10.90;1.00
6357;DHT22;3211;53.452;-2.264;2023-04-24T17:09:19;11.00;1.00
6357;DHT22;3211;53.452;-2.264;2023-04-24T17:12:01;10.80;1.00
6357;DHT22;3211;53.452;-2.264;2023-04-24T17:14:45;10.90;1.00
6357;DHT22;3211;53.452;-2.264;2023-04-24T17:17:27;10.90;1.00
6357;DHT22;3211;53.452;-2.264;2023-04-24T17:20:09;11.10;1.00
6357;DHT22;3211;53.452;-2.264;2023-04-24T17:22:52;11.10;1.00
6357;DHT22;3211;53.452;-2.264;2023-04-24T17:25:35;11.00;1.00
6357;DHT22;3211;53.452;-2.264;2023-04-24T17:28:24;10.80;1.00
6357;DHT22;3211;53.452;-2.264;2023-04-24T17:31:09;10.70;1.00
6357;DHT22;3211;53.452;-2.264;2023-04-24T17:33:50;10.50;1.00
6357;DHT22;3211;53.452;-2.264;2023-04-24T17:36:32;10.50;1.00
6357;DHT22;3211;53.452;-2.264;2023-04-24T17:39:14;10.40;1.00
6357;DHT22;3211;53.452;-2.264;2023-04-24T17:41:57;10.10;1.00
6357;DHT22;3211;53.452;-2.264;2023-04-24T17:44:39;10.10;1.00
6357;DHT22;3211;53.452;-2.264;2023-04-24T17:47:23;10.00;1.00
6357;DHT22;3211;53.452;-2.264;2023-04-24T17:50:07;9.90;1.00
6357;DHT22;3211;53.452;-2.264;2023-04-24T17:52:49;9.80;1.00
6357;DHT22;3211;53.452;-2.264;2023-04-24T17:55:31;9.70;1.00
6357;DHT22;3211;53.452;-2.264;2023-04-24T17:58:14;9.70;1.00
6357;DHT22;3211;53.452;-2.264;2023-04-24T18:00:58;9.80;1.00
6357;DHT22;3211;53.452;-2.264;2023-04-24T18:03:42;9.60;1.00
6357;DHT22;3211;53.452;-2.264;2023-04-24T18:06:24;9.80;1.00
6357;DHT22;3211;53.452;-2.264;2023-04-24T18:09:08;9.80;1.00
6357;DHT22;3211;53.452;-2.264;2023-04-24T18:11:51;9.80;1.00
6357;DHT22;3211;53.452;-2.264;2023-04-24T18:14:33;9.80;1.00
6357;DHT22;3211;53.452;-2.264;2023-04-24T18:17:15;9.70;1.00
6357;DHT22;3211;53.452;-2.264;2023-04-24T18:19:59;9.70;1.00
6357;DHT22;3211;53.452;-2.264;2023-04-24T18:22:41;9.70;1.00
6357;DHT22;3211;53.452;-2.264;2023-04-24T18:25:24;9.50;1.00
6357;DHT22;3211;53.452;-2.264;2023-04-24T18:28:06;9.50;1.00
6357;DHT22;3211;53.452;-2.264;2023-04-24T18:30:48;9.50;1.00
6357;DHT22;3211;53.452;-2.264;2023-04-24T18:33:31;9.40;1.00
6357;DHT22;3211;53.452;-2.264;2023-04-24T18:36:14;9.30;1.00
6357;DHT22;3211;53.452;-2.264;2023-04-24T18:38:56;9.30;1.00